createdAt,value
2023-02-20T00:00:37.135Z,3.00
2023-02-20T00:03:05.110Z,1.00
2023-02-20T00:05:32.061Z,3.00
2023-02-20T00:07:59.497Z,3.00
2023-02-20T00:10:26.905Z,1.67
2023-02-20T00:12:54.280Z,1.00
2023-02-20T00:15:21.459Z,1.00
2023-02-20T00:17:48.831Z,6.00
2023-02-20T00:20:19.643Z,6.00
2023-02-20T00:22:46.613Z,1.33
2023-02-20T00:25:13.586Z,3.33
2023-02-20T00:27:40.403Z,3.00
2023-02-20T00:30:07.865Z,5.33
2023-02-20T00:32:34.688Z,1.67
2023-02-20T00:35:01.543Z,4.00
2023-02-20T00:37:28.478Z,7.67
2023-02-20T00:39:55.383Z,3.00
2023-02-20T00:42:22.110Z,3.00
2023-02-20T00:44:48.900Z,3.00
2023-02-20T00:47:15.649Z,4.00
2023-02-20T00:49:42.824Z,6.33
2023-02-20T00:52:09.651Z,1.67
2023-02-20T00:54:36.528Z,3.67
2023-02-20T00:57:03.346Z,9.00
2023-02-20T00:59:30.406Z,4.00
2023-02-20T01:01:57.181Z,6.00
2023-02-20T01:04:24.706Z,6.00
2023-02-20T01:06:51.461Z,4.00
2023-02-20T01:09:18.601Z,6.33
2023-02-20T01:11:46.104Z,6.00
2023-02-20T01:14:14.258Z,8.50
2023-02-20T01:16:48.780Z,7.00
2023-02-20T01:19:15.923Z,6.67
2023-02-20T01:21:42.667Z,6.00
2023-02-20T01:24:09.540Z,6.00
2023-02-20T01:26:36.760Z,2.33
2023-02-20T01:29:04.475Z,6.67
2023-02-20T01:31:31.342Z,6.33
2023-02-20T01:33:58.355Z,5.33
2023-02-20T01:36:25.215Z,4.00
2023-02-20T01:38:52.000Z,7.00
2023-02-20T01:41:20.364Z,8.50
2023-02-20T01:43:47.182Z,8.33
2023-02-20T01:46:29.521Z,8.33
2023-02-20T01:49:04.809Z,7.00
2023-02-20T01:51:37.041Z,3.75
2023-02-20T01:54:07.740Z,8.33
2023-02-20T01:56:34.798Z,6.00
2023-02-20T01:59:03.004Z,4.50
2023-02-20T02:01:32.747Z,6.50
2023-02-20T02:04:05.149Z,6.00
2023-02-20T02:06:35.012Z,6.67
2023-02-20T02:09:09.660Z,13.00
2023-02-20T02:11:37.372Z,6.00
2023-02-20T02:14:05.241Z,12.25
2023-02-20T02:16:51.728Z,6.33
2023-02-20T02:19:49.308Z,8.33
2023-02-20T02:22:22.017Z,9.00
2023-02-20T02:25:26.797Z,7.67
2023-02-20T02:28:19.183Z,8.50
2023-02-20T02:31:23.991Z,10.00
2023-02-20T02:34:10.046Z,7.50
2023-02-20T02:37:05.400Z,6.00
2023-02-20T02:39:43.741Z,9.75
2023-02-20T02:42:28.960Z,15.00
2023-02-20T02:45:01.871Z,9.00
2023-02-20T02:47:57.962Z,9.50
2023-02-20T02:50:33.176Z,8.50
2023-02-20T02:53:02.281Z,7.50
2023-02-20T02:55:33.949Z,9.75
2023-02-20T02:58:02.272Z,8.33
2023-02-20T03:00:40.426Z,6.67
2023-02-20T03:03:11.615Z,12.50
2023-02-20T03:05:49.644Z,7.67
2023-02-20T03:08:32.346Z,6.75
2023-02-20T03:11:05.383Z,9.75
2023-02-20T03:13:57.220Z,6.67
2023-02-20T03:16:33.606Z,4.67
2023-02-20T03:19:03.129Z,8.67
2023-02-20T03:21:33.558Z,11.33
2023-02-20T03:24:04.319Z,8.33
2023-02-20T03:26:36.198Z,10.00
2023-02-20T03:29:10.309Z,6.00
2023-02-20T03:32:11.105Z,10.67
2023-02-20T03:34:59.236Z,6.50
2023-02-20T03:37:47.124Z,5.33
2023-02-20T03:40:37.097Z,9.00
2023-02-20T03:43:24.140Z,9.50
2023-02-20T03:45:54.010Z,6.00
2023-02-20T03:48:35.102Z,6.00
2023-02-20T03:51:02.217Z,4.00
2023-02-20T03:53:29.316Z,7.00
2023-02-20T03:56:01.302Z,7.67
2023-02-20T03:58:31.371Z,6.33
2023-02-20T04:01:36.762Z,7.00
2023-02-20T04:04:07.175Z,7.00
2023-02-20T04:06:37.284Z,6.00
2023-02-20T04:09:13.142Z,6.75
2023-02-20T04:11:45.903Z,4.00
2023-02-20T04:14:15.632Z,6.33
2023-02-20T04:16:51.418Z,6.33
2023-02-20T04:19:18.939Z,9.00
2023-02-20T04:21:51.844Z,7.00
2023-02-20T04:24:38.708Z,6.33
2023-02-20T04:27:05.828Z,7.00
2023-02-20T04:29:32.971Z,4.00
2023-02-20T04:31:59.997Z,9.00
2023-02-20T04:34:26.879Z,9.00
2023-02-20T04:37:07.412Z,6.33
2023-02-20T04:39:34.307Z,6.00
2023-02-20T04:42:00.984Z,4.67
2023-02-20T04:44:34.553Z,8.00
2023-02-20T04:47:06.977Z,6.00
2023-02-20T04:49:33.935Z,4.67
2023-02-20T04:52:00.793Z,4.67
2023-02-20T04:54:27.826Z,9.67
2023-02-20T04:56:55.849Z,7.50
2023-02-20T04:59:24.049Z,9.25
2023-02-20T05:01:52.328Z,7.00
2023-02-20T05:04:21.104Z,3.33
2023-02-20T05:06:54.524Z,7.00
2023-02-20T05:09:23.754Z,6.50
2023-02-20T05:11:51.583Z,6.75
2023-02-20T05:14:20.105Z,8.33
2023-02-20T05:16:47.913Z,7.33
2023-02-20T05:19:16.212Z,9.00
2023-02-20T05:22:04.639Z,9.00
2023-02-20T05:24:32.832Z,6.50
2023-02-20T05:27:00.410Z,7.67
2023-02-20T05:29:28.044Z,8.33
2023-02-20T05:31:55.148Z,10.00
2023-02-20T05:34:22.851Z,9.00
2023-02-20T05:36:50.617Z,9.25
2023-02-20T05:39:18.468Z,8.00
2023-02-20T05:41:46.234Z,11.75
2023-02-20T05:44:16.353Z,12.67
2023-02-20T05:46:44.943Z,9.50
2023-02-20T05:49:12.364Z,12.50
2023-02-20T05:51:40.055Z,12.50
2023-02-20T05:54:07.293Z,18.00
2023-02-20T05:56:37.125Z,12.00
2023-02-20T05:59:05.001Z,12.67
2023-02-20T06:01:32.216Z,11.50
2023-02-20T06:04:01.512Z,11.50
2023-02-20T06:06:39.708Z,9.00
2023-02-20T06:09:09.206Z,14.50
2023-02-20T06:11:36.123Z,17.00
2023-02-20T06:14:05.645Z,22.00
2023-02-20T06:16:35.058Z,25.67
2023-02-20T06:19:03.661Z,21.33
2023-02-20T06:21:36.060Z,20.00
2023-02-20T06:24:03.417Z,14.00
2023-02-20T06:26:30.208Z,13.00
2023-02-20T06:28:58.294Z,19.50
2023-02-20T06:31:28.543Z,20.00
2023-02-20T06:33:55.516Z,12.33
2023-02-20T06:36:25.969Z,12.75
2023-02-20T06:38:55.247Z,13.00
2023-02-20T06:41:23.485Z,18.50
2023-02-20T06:43:50.331Z,15.50
2023-02-20T06:46:18.310Z,19.33
2023-02-20T06:48:47.482Z,15.00
2023-02-20T06:51:21.187Z,12.60
2023-02-20T06:53:48.300Z,8.00
2023-02-20T06:56:23.471Z,10.00
2023-02-20T06:58:51.740Z,18.00
2023-02-20T07:01:20.450Z,6.67
2023-02-20T07:03:51.508Z,12.00
2023-02-20T07:06:18.432Z,16.00
2023-02-20T07:08:45.426Z,17.50
2023-02-20T07:11:13.232Z,13.00
2023-02-20T07:13:42.729Z,17.00
2023-02-20T07:16:09.955Z,20.50
2023-02-20T07:18:37.756Z,18.00
2023-02-20T07:21:04.833Z,16.00
2023-02-20T07:23:31.838Z,18.00
2023-02-20T07:25:58.638Z,15.00
2023-02-20T07:28:26.299Z,9.00
2023-02-20T07:30:53.291Z,16.00
2023-02-20T07:33:20.372Z,19.00
2023-02-20T07:35:49.218Z,18.40
2023-02-20T07:38:18.704Z,22.00
2023-02-20T07:40:48.227Z,23.00
2023-02-20T07:43:15.121Z,15.00
2023-02-20T07:45:44.810Z,25.33
2023-02-20T07:48:14.269Z,25.33
2023-02-20T07:50:41.430Z,19.00
2023-02-20T07:53:08.445Z,18.00
2023-02-20T07:55:35.407Z,20.00
2023-02-20T07:58:03.162Z,18.67
2023-02-20T08:00:30.150Z,15.50
2023-02-20T08:03:00.977Z,16.33
2023-02-20T08:05:32.825Z,12.50
2023-02-20T08:08:05.455Z,14.00
2023-02-20T08:10:33.570Z,10.00
2023-02-20T08:13:00.371Z,10.00
2023-02-20T08:15:29.158Z,17.00
2023-02-20T08:17:56.224Z,18.50
2023-02-20T08:20:26.792Z,14.57
2023-02-20T08:22:53.939Z,3.00
2023-02-20T08:25:20.725Z,9.67
2023-02-20T08:27:49.521Z,5.33
2023-02-20T08:30:24.868Z,9.50
2023-02-20T08:32:52.346Z,7.00
2023-02-20T08:35:21.021Z,10.50
2023-02-20T08:37:48.683Z,5.75
2023-02-20T08:40:15.502Z,8.33
2023-02-20T08:42:43.078Z,11.00
2023-02-20T08:45:10.479Z,10.00
2023-02-20T08:47:38.189Z,8.00
2023-02-20T08:50:05.348Z,6.33
2023-02-20T08:52:32.444Z,7.33
2023-02-20T08:54:59.619Z,11.00
2023-02-20T08:57:26.372Z,5.00
2023-02-20T08:59:53.575Z,10.00
2023-02-20T09:02:29.249Z,5.00
2023-02-20T09:04:57.651Z,10.50
2023-02-20T09:07:25.256Z,4.00
2023-02-20T09:09:52.509Z,11.00
2023-02-20T09:12:20.299Z,7.75
2023-02-20T09:14:47.230Z,9.00
2023-02-20T09:17:14.488Z,21.00
2023-02-20T09:19:41.680Z,34.00
2023-02-20T09:22:09.546Z,20.00
2023-02-20T09:24:37.201Z,9.50
2023-02-20T09:27:09.043Z,28.00
2023-02-20T09:29:41.266Z,19.00
2023-02-20T09:32:09.559Z,41.67
2023-02-20T09:34:37.682Z,21.00
2023-02-20T09:37:05.624Z,15.00
2023-02-20T09:39:32.772Z,14.00
2023-02-20T09:42:18.017Z,13.00
2023-02-20T09:44:58.733Z,12.40
2023-02-20T09:47:55.475Z,9.00
2023-02-20T09:50:49.430Z,11.25
2023-02-20T09:53:18.996Z,8.00
2023-02-20T09:55:47.347Z,9.00
2023-02-20T09:58:41.365Z,12.50
2023-02-20T10:01:11.498Z,16.00
2023-02-20T10:03:48.187Z,5.25
2023-02-20T10:06:19.976Z,9.00
2023-02-20T10:08:52.162Z,4.50
2023-02-20T10:11:56.609Z,6.50
2023-02-20T10:14:34.887Z,8.75
2023-02-20T10:17:32.733Z,10.00
2023-02-20T10:20:26.128Z,5.50
2023-02-20T10:23:10.889Z,13.50
2023-02-20T10:25:43.484Z,7.00
2023-02-20T10:28:16.057Z,24.00
2023-02-20T10:31:03.107Z,8.25
2023-02-20T10:33:37.161Z,2.50
2023-02-20T10:36:45.488Z,11.00
2023-02-20T10:39:17.888Z,9.00
2023-02-20T10:41:55.150Z,8.50
2023-02-20T10:44:40.285Z,8.50
2023-02-20T10:47:30.577Z,5.25
2023-02-20T10:50:42.185Z,8.75
2023-02-20T10:53:31.603Z,5.75
2023-02-20T10:56:15.225Z,5.67
2023-02-20T10:58:53.776Z,3.75
2023-02-20T11:01:24.397Z,10.00
2023-02-20T11:04:04.047Z,5.00
2023-02-20T11:06:40.061Z,6.00
2023-02-20T11:09:08.689Z,5.00
2023-02-20T11:11:40.321Z,4.00
2023-02-20T11:14:15.912Z,4.50
2023-02-20T11:16:56.410Z,10.00
2023-02-20T11:19:40.812Z,11.00
2023-02-20T11:22:07.778Z,10.00
2023-02-20T11:24:39.425Z,9.00
2023-02-20T11:27:13.412Z,8.00
2023-02-20T11:29:48.454Z,9.00
2023-02-20T11:32:34.357Z,6.00
2023-02-20T11:35:17.288Z,5.75
2023-02-20T11:37:54.933Z,14.40
2023-02-20T11:40:31.858Z,10.33
2023-02-20T11:43:13.958Z,12.00
2023-02-20T11:45:42.629Z,12.20
2023-02-20T11:48:12.428Z,9.50
2023-02-20T11:50:52.407Z,7.00
2023-02-20T11:53:32.380Z,12.00
2023-02-20T11:56:19.690Z,13.50
2023-02-20T11:58:47.544Z,10.00
2023-02-20T12:01:32.829Z,10.00
2023-02-20T12:04:00.909Z,7.00
2023-02-20T12:06:33.881Z,6.00
2023-02-20T12:09:07.141Z,15.00
2023-02-20T12:11:34.896Z,15.67
2023-02-20T12:14:01.886Z,10.00
2023-02-20T12:16:50.697Z,18.67
2023-02-20T12:19:27.218Z,11.00
2023-02-20T12:22:01.406Z,17.20
2023-02-20T12:24:46.614Z,11.00
2023-02-20T12:27:40.339Z,6.00
2023-02-20T12:30:25.453Z,12.00
2023-02-20T12:33:16.960Z,12.50
2023-02-20T12:35:59.867Z,7.50
2023-02-20T12:38:38.366Z,11.50
2023-02-20T12:41:26.127Z,12.00
2023-02-20T12:44:20.419Z,10.00
2023-02-20T12:47:21.254Z,13.40
2023-02-20T12:49:55.759Z,11.00
2023-02-20T12:52:57.326Z,13.67
2023-02-20T12:55:57.201Z,14.00
2023-02-20T12:58:46.650Z,21.00
2023-02-20T13:01:22.819Z,14.67
2023-02-20T13:03:57.983Z,10.00
2023-02-20T13:06:43.797Z,16.00
2023-02-20T13:09:13.864Z,15.00
2023-02-20T13:11:46.652Z,12.00
2023-02-20T13:14:13.385Z,7.50
2023-02-20T13:16:47.747Z,8.00
2023-02-20T13:19:29.986Z,11.00
2023-02-20T13:21:58.524Z,11.00
2023-02-20T13:24:33.389Z,12.00
2023-02-20T13:27:07.614Z,10.60
2023-02-20T13:29:56.134Z,19.00
2023-02-20T13:32:30.897Z,18.67
2023-02-20T13:35:33.769Z,12.67
2023-02-20T13:38:12.650Z,8.00
2023-02-20T13:40:44.823Z,9.00
2023-02-20T13:43:25.799Z,17.00
2023-02-20T13:46:06.135Z,13.00
2023-02-20T13:48:34.174Z,10.33
2023-02-20T13:51:16.329Z,6.00
2023-02-20T13:54:06.798Z,12.00
2023-02-20T13:56:39.878Z,8.50
2023-02-20T13:59:18.372Z,7.00
2023-02-20T14:02:16.132Z,14.00
2023-02-20T14:04:57.363Z,7.00
2023-02-20T14:07:40.980Z,11.50
2023-02-20T14:10:15.084Z,4.00
2023-02-20T14:12:53.008Z,9.86
2023-02-20T14:15:22.755Z,17.00
2023-02-20T14:17:53.539Z,16.50
2023-02-20T14:20:25.955Z,13.33
2023-02-20T14:23:13.034Z,13.00
2023-02-20T14:25:52.061Z,14.80
2023-02-20T14:28:33.237Z,12.33
2023-02-20T14:31:07.811Z,12.33
2023-02-20T14:33:34.795Z,11.50
2023-02-20T14:36:26.555Z,13.00
2023-02-20T14:39:32.185Z,12.20
2023-02-20T14:42:04.347Z,15.67
2023-02-20T14:44:33.861Z,10.20
2023-02-20T14:47:15.118Z,13.50
2023-02-20T14:49:42.692Z,12.00
2023-02-20T14:52:10.464Z,19.33
2023-02-20T14:54:39.509Z,20.50
2023-02-20T14:57:06.775Z,17.00
2023-02-20T14:59:38.449Z,21.33
2023-02-20T15:02:06.141Z,32.00
2023-02-20T15:04:33.886Z,27.00
2023-02-20T15:07:07.148Z,20.00
2023-02-20T15:09:43.481Z,29.50
2023-02-20T15:12:32.790Z,32.00
2023-02-20T15:15:06.737Z,20.50
2023-02-20T15:17:38.354Z,26.50
2023-02-20T15:20:38.599Z,28.00
2023-02-20T15:23:15.669Z,17.00
2023-02-20T15:25:43.844Z,15.00
2023-02-20T15:28:17.869Z,12.67
2023-02-20T15:31:16.232Z,16.00
2023-02-20T15:33:49.937Z,22.67
2023-02-20T15:36:24.022Z,26.50
2023-02-20T15:38:56.673Z,27.50
2023-02-20T15:41:24.486Z,23.00
2023-02-20T15:43:52.287Z,29.67
2023-02-20T15:46:21.131Z,34.00
2023-02-20T15:48:51.755Z,33.00
2023-02-20T15:51:23.024Z,25.00
2023-02-20T15:53:53.871Z,25.00
2023-02-20T15:56:27.346Z,27.00
2023-02-20T15:58:56.880Z,28.00
2023-02-20T16:01:24.460Z,18.00
2023-02-20T16:03:57.137Z,28.00
2023-02-20T16:06:25.114Z,24.00
2023-02-20T16:08:53.170Z,33.50
2023-02-20T16:11:24.470Z,23.00
2023-02-20T16:14:01.035Z,30.33
2023-02-20T16:16:39.378Z,41.00
2023-02-20T16:19:19.116Z,35.50
2023-02-20T16:21:58.779Z,47.33
2023-02-20T16:24:28.365Z,40.33
2023-02-20T16:26:57.132Z,43.67
2023-02-20T16:29:33.342Z,60.00
2023-02-20T16:32:02.334Z,75.33
2023-02-20T16:34:33.152Z,81.00
2023-02-20T16:37:03.319Z,77.33
2023-02-20T16:39:31.950Z,72.00
2023-02-20T16:42:03.587Z,75.67
2023-02-20T16:44:36.182Z,82.00
2023-02-20T16:47:05.073Z,87.33
2023-02-20T16:49:37.542Z,79.33
2023-02-20T16:52:23.493Z,75.00
2023-02-20T16:54:55.275Z,72.00
2023-02-20T16:57:25.354Z,66.33
2023-02-20T16:59:56.323Z,73.00
2023-02-20T17:02:27.417Z,70.00
2023-02-20T17:04:58.834Z,67.00
2023-02-20T17:07:27.719Z,74.33
2023-02-20T17:09:58.634Z,78.33
2023-02-20T17:12:27.929Z,83.00
2023-02-20T17:14:58.035Z,69.33
2023-02-20T17:17:26.638Z,61.00
2023-02-20T17:19:58.312Z,57.50
2023-02-20T17:22:26.581Z,58.00
2023-02-20T17:24:56.336Z,58.67
2023-02-20T17:27:25.979Z,56.33
2023-02-20T17:29:54.558Z,49.50
2023-02-20T17:32:23.516Z,51.67
2023-02-20T17:34:52.103Z,54.33
2023-02-20T17:37:21.752Z,51.33
2023-02-20T17:39:50.962Z,42.67
2023-02-20T17:42:18.734Z,46.50
2023-02-20T17:44:50.150Z,38.00
2023-02-20T17:47:18.092Z,26.00
2023-02-20T17:49:50.109Z,22.00
2023-02-20T17:52:20.694Z,11.80
2023-02-20T17:54:50.356Z,35.50
2023-02-20T17:57:19.583Z,32.00
2023-02-20T17:59:49.475Z,33.50
2023-02-20T18:02:18.502Z,36.50
2023-02-20T18:04:47.057Z,38.00
2023-02-20T18:07:17.593Z,40.00
2023-02-20T18:09:46.264Z,42.00
2023-02-20T18:12:14.894Z,48.00
2023-02-20T18:14:45.264Z,45.67
2023-02-20T18:17:14.130Z,38.33
2023-02-20T18:19:42.298Z,41.50
2023-02-20T18:22:10.085Z,36.50
2023-02-20T18:24:37.899Z,37.00
2023-02-20T18:27:06.701Z,46.67
2023-02-20T18:29:35.323Z,47.00
2023-02-20T18:32:04.100Z,53.67
2023-02-20T18:34:32.163Z,44.50
2023-02-20T18:37:01.252Z,52.33
2023-02-20T18:39:30.048Z,43.33
2023-02-20T18:41:58.430Z,40.00
2023-02-20T18:44:27.827Z,43.00
2023-02-20T18:46:57.580Z,43.67
2023-02-20T18:49:26.430Z,55.00
2023-02-20T18:51:55.013Z,51.33
2023-02-20T18:54:32.962Z,45.33
2023-02-20T18:57:03.253Z,51.00
2023-02-20T18:59:32.067Z,48.67
2023-02-20T19:02:00.383Z,45.00
2023-02-20T19:04:29.038Z,52.00
2023-02-20T19:06:59.298Z,51.50
2023-02-20T19:09:27.896Z,40.33
2023-02-20T19:11:57.133Z,33.67
2023-02-20T19:14:28.828Z,53.67
2023-02-20T19:16:59.842Z,46.50
2023-02-20T19:19:30.700Z,42.50
2023-02-20T19:21:59.560Z,42.33
2023-02-20T19:24:28.183Z,43.67
2023-02-20T19:26:55.068Z,36.50
2023-02-20T19:29:22.804Z,47.00
2023-02-20T19:31:50.713Z,40.00
2023-02-20T19:34:19.077Z,41.50
2023-02-20T19:36:47.037Z,38.50
2023-02-20T19:39:15.033Z,38.00
2023-02-20T19:41:43.386Z,45.00
2023-02-20T19:44:16.055Z,40.00
2023-02-20T19:46:44.851Z,47.67
2023-02-20T19:49:13.132Z,55.50
2023-02-20T19:51:46.282Z,38.00
2023-02-20T19:54:17.477Z,44.33
2023-02-20T19:56:54.626Z,48.00
2023-02-20T19:59:23.213Z,52.33
2023-02-20T20:01:56.514Z,50.00
2023-02-20T20:04:35.664Z,46.00
2023-02-20T20:07:04.395Z,54.67
2023-02-20T20:09:37.000Z,40.33
2023-02-20T20:12:26.461Z,44.67
2023-02-20T20:14:55.444Z,45.50
2023-02-20T20:17:24.242Z,54.33
2023-02-20T20:19:58.723Z,50.33
2023-02-20T20:22:31.115Z,48.67
2023-02-20T20:24:59.303Z,47.00
2023-02-20T20:27:28.114Z,53.67
2023-02-20T20:29:57.128Z,55.00
2023-02-20T20:32:25.168Z,51.00
2023-02-20T20:34:55.426Z,59.50
2023-02-20T20:37:27.514Z,63.00
2023-02-20T20:39:58.549Z,65.00
2023-02-20T20:42:28.290Z,66.00
2023-02-20T20:44:59.361Z,80.33
2023-02-20T20:47:29.466Z,57.00
2023-02-20T20:49:58.848Z,51.50
2023-02-20T20:52:28.604Z,57.33
2023-02-20T20:54:58.173Z,44.50
2023-02-20T20:57:28.682Z,39.00
2023-02-20T20:59:59.416Z,38.50
2023-02-20T21:02:28.715Z,48.00
2023-02-20T21:05:09.445Z,42.00
2023-02-20T21:07:40.041Z,48.33
2023-02-20T21:10:09.219Z,45.00
2023-02-20T21:12:39.175Z,49.67
2023-02-20T21:15:09.614Z,46.50
2023-02-20T21:17:38.017Z,44.00
2023-02-20T21:20:08.432Z,41.00
2023-02-20T21:22:36.383Z,44.50
2023-02-20T21:25:04.741Z,53.00
2023-02-20T21:27:32.602Z,53.50
2023-02-20T21:30:01.490Z,57.33
2023-02-20T21:32:29.971Z,67.50
2023-02-20T21:34:58.244Z,49.00
2023-02-20T21:37:27.858Z,54.50
2023-02-20T21:39:55.758Z,60.00
2023-02-20T21:42:43.188Z,56.00
2023-02-20T21:45:11.086Z,61.50
2023-02-20T21:47:38.941Z,67.50
2023-02-20T21:50:08.078Z,64.33
2023-02-20T21:52:37.401Z,64.00
2023-02-20T21:55:09.621Z,64.67
2023-02-20T21:57:37.991Z,52.50
2023-02-20T22:00:08.686Z,56.00
2023-02-20T22:02:35.550Z,41.00
2023-02-20T22:05:07.798Z,47.00
2023-02-20T22:07:54.908Z,52.00
2023-02-20T22:10:42.683Z,58.50
2023-02-20T22:13:29.622Z,52.50
2023-02-20T22:16:16.226Z,64.50
2023-02-20T22:19:02.883Z,52.50
2023-02-20T22:21:51.109Z,63.00
2023-02-20T22:24:39.203Z,60.00
2023-02-20T22:27:27.654Z,59.00
2023-02-20T22:30:14.274Z,53.50
2023-02-20T22:33:00.845Z,72.50
2023-02-20T22:35:47.493Z,52.50
2023-02-20T22:38:33.916Z,46.50
2023-02-20T22:41:21.096Z,56.00
2023-02-20T22:44:07.454Z,64.50
2023-02-20T22:46:54.071Z,66.50
2023-02-20T22:49:40.611Z,56.00
2023-02-20T22:52:27.793Z,67.33
2023-02-20T22:55:14.095Z,58.50
2023-02-20T22:58:00.776Z,62.00
2023-02-20T23:00:47.057Z,65.00
2023-02-20T23:03:33.528Z,45.50
2023-02-20T23:06:20.706Z,57.67
2023-02-20T23:09:08.928Z,64.00
2023-02-20T23:11:57.359Z,70.67
2023-02-20T23:14:44.202Z,66.50
2023-02-20T23:17:36.354Z,66.50
2023-02-20T23:20:26.524Z,50.00
2023-02-20T23:23:12.240Z,59.50
2023-02-20T23:25:57.523Z,47.00
2023-02-20T23:28:44.466Z,51.50
2023-02-20T23:31:31.167Z,41.00
2023-02-20T23:34:17.660Z,42.33
2023-02-20T23:37:07.830Z,45.00
2023-02-20T23:39:53.723Z,43.50
2023-02-20T23:42:40.025Z,43.00
2023-02-20T23:45:27.445Z,42.00
2023-02-20T23:48:13.161Z,41.50
2023-02-20T23:50:58.525Z,25.00
2023-02-20T23:53:44.862Z,39.00
2023-02-20T23:56:30.597Z,31.00
2023-02-20T23:59:16.235Z,38.00
